sensor_id;sensor_type;location;lat;lon;timestamp;P1;durP1;ratioP1;P2;durP2;ratioP2
18405;SDS011;9329;48.720;9.588;2022-11-03T21:25:28;25.90;;;17.38;;
18405;SDS011;9329;48.720;9.588;2022-11-03T21:27:56;25.88;;;16.90;;
18405;SDS011;9329;48.720;9.588;2022-11-03T21:30:23;25.00;;;16.20;;
18405;SDS011;9329;48.720;9.588;2022-11-03T21:32:50;23.45;;;15.98;;
18405;SDS011;9329;48.720;9.588;2022-11-03T21:35:18;23.90;;;14.95;;
18405;SDS011;9329;48.720;9.588;2022-11-03T21:37:46;22.77;;;14.32;;
18405;SDS011;9329;48.720;9.588;2022-11-03T21:40:14;23.52;;;14.85;;
18405;SDS011;9329;48.720;9.588;2022-11-03T21:42:43;23.83;;;15.30;;
18405;SDS011;9329;48.720;9.588;2022-11-03T21:45:28;21.00;;;15.07;;
18405;SDS011;9329;48.720;9.588;2022-11-03T21:47:55;25.13;;;16.08;;
18405;SDS011;9329;48.720;9.588;2022-11-03T21:50:40;23.40;;;16.45;;
18405;SDS011;9329;48.720;9.588;2022-11-03T21:53:07;23.48;;;15.93;;
18405;SDS011;9329;48.720;9.588;2022-11-03T21:55:34;24.85;;;16.13;;
18405;SDS011;9329;48.720;9.588;2022-11-03T21:58:03;23.58;;;15.80;;
18405;SDS011;9329;48.720;9.588;2022-11-03T22:00:30;23.63;;;15.60;;
18405;SDS011;9329;48.720;9.588;2022-11-03T22:02:58;24.00;;;15.32;;
18405;SDS011;9329;48.720;9.588;2022-11-03T22:05:25;24.80;;;16.17;;
18405;SDS011;9329;48.720;9.588;2022-11-03T22:07:53;24.98;;;17.98;;
18405;SDS011;9329;48.720;9.588;2022-11-03T22:10:20;28.20;;;17.20;;
18405;SDS011;9329;48.720;9.588;2022-11-03T22:12:47;26.40;;;17.85;;
18405;SDS011;9329;48.720;9.588;2022-11-03T22:15:16;30.03;;;18.93;;
18405;SDS011;9329;48.720;9.588;2022-11-03T22:18:01;27.65;;;17.67;;
18405;SDS011;9329;48.720;9.588;2022-11-03T22:20:28;25.40;;;16.85;;
18405;SDS011;9329;48.720;9.588;2022-11-03T22:23:13;27.98;;;18.33;;
18405;SDS011;9329;48.720;9.588;2022-11-03T22:25:58;28.55;;;17.35;;
18405;SDS011;9329;48.720;9.588;2022-11-03T22:28:51;22.80;;;13.75;;
18405;SDS011;9329;48.720;9.588;2022-11-03T22:31:49;20.13;;;13.27;;
18405;SDS011;9329;48.720;9.588;2022-11-03T22:34:15;20.90;;;14.77;;
18405;SDS011;9329;48.720;9.588;2022-11-03T22:36:59;17.23;;;11.80;;
18405;SDS011;9329;48.720;9.588;2022-11-03T22:39:26;18.17;;;11.43;;
18405;SDS011;9329;48.720;9.588;2022-11-03T22:42:11;16.67;;;10.65;;
18405;SDS011;9329;48.720;9.588;2022-11-03T22:44:56;12.77;;;9.53;;
18405;SDS011;9329;48.720;9.588;2022-11-03T22:47:42;12.68;;;8.23;;
18405;SDS011;9329;48.720;9.588;2022-11-03T22:50:09;9.75;;;5.85;;
18405;SDS011;9329;48.720;9.588;2022-11-03T22:52:36;7.93;;;4.55;;
18405;SDS011;9329;48.720;9.588;2022-11-03T22:55:03;6.00;;;3.38;;
18405;SDS011;9329;48.720;9.588;2022-11-03T22:57:30;7.30;;;3.90;;
18405;SDS011;9329;48.720;9.588;2022-11-03T22:59:57;7.15;;;4.38;;
18405;SDS011;9329;48.720;9.588;2022-11-03T23:02:24;6.25;;;4.30;;
18405;SDS011;9329;48.720;9.588;2022-11-03T23:04:52;7.30;;;5.03;;
18405;SDS011;9329;48.720;9.588;2022-11-03T23:07:19;9.37;;;6.20;;
18405;SDS011;9329;48.720;9.588;2022-11-03T23:09:46;13.52;;;7.30;;
18405;SDS011;9329;48.720;9.588;2022-11-03T23:12:13;12.63;;;7.97;;
18405;SDS011;9329;48.720;9.588;2022-11-03T23:14:40;12.38;;;8.10;;
18405;SDS011;9329;48.720;9.588;2022-11-03T23:17:25;12.63;;;8.55;;
18405;SDS011;9329;48.720;9.588;2022-11-03T23:20:13;12.38;;;8.88;;
18405;SDS011;9329;48.720;9.588;2022-11-03T23:22:58;14.40;;;9.43;;
18405;SDS011;9329;48.720;9.588;2022-11-03T23:25:25;13.38;;;9.15;;
18405;SDS011;9329;48.720;9.588;2022-11-03T23:27:51;14.20;;;8.80;;
18405;SDS011;9329;48.720;9.588;2022-11-03T23:30:18;12.48;;;8.75;;
18405;SDS011;9329;48.720;9.588;2022-11-03T23:32:46;13.95;;;9.05;;
18405;SDS011;9329;48.720;9.588;2022-11-03T23:35:14;11.93;;;7.72;;
18405;SDS011;9329;48.720;9.588;2022-11-03T23:37:41;11.68;;;7.75;;
18405;SDS011;9329;48.720;9.588;2022-11-03T23:40:09;10.27;;;7.75;;
18405;SDS011;9329;48.720;9.588;2022-11-03T23:42:37;13.05;;;8.10;;
18405;SDS011;9329;48.720;9.588;2022-11-03T23:45:04;10.85;;;7.75;;
18405;SDS011;9329;48.720;9.588;2022-11-03T23:47:49;12.82;;;8.50;;
18405;SDS011;9329;48.720;9.588;2022-11-03T23:50:36;13.15;;;8.40;;
18405;SDS011;9329;48.720;9.588;2022-11-03T23:53:04;12.30;;;8.02;;
18405;SDS011;9329;48.720;9.588;2022-11-03T23:55:32;11.23;;;7.13;;
18405;SDS011;9329;48.720;9.588;2022-11-03T23:58:19;10.07;;;7.17;;
